»·PEaware :: N27JP KVNY-KONT

N27JP :: KVNY-KONT

FLIGHT INFORMATION

Flight Status: Arrived
Operator: Privately registered:
United States
More flights under this callsign
Pilot: Weston J. (31543)
Aircraft: CESSNA 172 SKYHAWK
(C172)
More flights by this aircraft type
Origin: KVNY Van Nuys
United States
Destination: KONT Ontario Intl
United States
More flights between these airports :: More routes between these airports
Route:
File this flight plan on PilotEdge
Remarks:
Altitude:
(Current/Filed)
5,500ft
Speed:
(Current/Filed)
0kts
Departed: 21-Nov-20 02:51 PM
Arrived: 21-Nov-20 03:26 PM
Distance/Time
Traveled:
6795nm/0:35
Distance/Time
To Go:
Arrived

Flight Plot

Page will automatically refresh every two minutes.

Flight plan parsing failed; only flown route is shown


Map Options




Map Legend


Flown Route
Filed Route
Departure Airport
Arrival Airport
Navaid (VOR, NDB)
Fix

Horizontal Profiles

Position Reports

Time Latitude Longitude Heading Altitude Ground
Speed
21-Nov-20 14:34 34.216530 -118.497227 138 801ft 0kts
21-Nov-20 14:35 34.216530 -118.497227 138 801ft 0kts
21-Nov-20 14:36 34.216530 -118.497227 138 801ft 0kts
21-Nov-20 14:37 34.216530 -118.497227 138 801ft 0kts
21-Nov-20 14:38 34.216530 -118.497227 138 801ft 0kts
21-Nov-20 14:39 34.216530 -118.497227 138 801ft 0kts
21-Nov-20 14:40 34.216530 -118.497227 138 801ft 0kts
21-Nov-20 14:41 34.216530 -118.497227 138 801ft 0kts
21-Nov-20 14:42 34.216530 -118.497227 138 801ft 0kts
21-Nov-20 14:43 34.216412 -118.497295 257 800ft 7kts
21-Nov-20 14:44 34.216565 -118.495163 99 800ft 18kts
21-Nov-20 14:45 34.215856 -118.492216 174 795ft 16kts
21-Nov-20 14:46 34.209798 -118.491558 175 786ft 19kts
21-Nov-20 14:47 34.204224 -118.491031 175 768ft 21kts
21-Nov-20 14:48 34.197696 -118.490090 175 751ft 23kts
21-Nov-20 14:49 34.197179 -118.489960 132 750ft 1kts
21-Nov-20 14:50 34.208874 -118.490356 356 907ft 86kts
21-Nov-20 14:51 34.234098 -118.491637 359 1675ft 91kts
21-Nov-20 14:52 34.239136 -118.517219 266 2477ft 92kts
21-Nov-20 14:53 34.259287 -118.526207 5 2915ft 112kts
21-Nov-20 14:54 34.283544 -118.513602 47 3639ft 99kts
21-Nov-20 14:55 34.300014 -118.488191 53 4326ft 92kts
21-Nov-20 14:56 34.314701 -118.462395 58 4946ft 93kts
21-Nov-20 14:57 34.306656 -118.430882 115 5344ft 108kts
21-Nov-20 14:58 34.293386 -118.397390 112 5607ft 114kts
21-Nov-20 14:59 34.280365 -118.361857 114 5492ft 117kts
21-Nov-20 15:00 34.267096 -118.327142 124 5557ft 113kts
21-Nov-20 15:01 34.246509 -118.298015 131 5607ft 114kts
21-Nov-20 15:02 34.226201 -118.268391 127 5590ft 113kts
21-Nov-20 15:03 34.206554 -118.238122 127 5568ft 114kts
21-Nov-20 15:04 34.188113 -118.209974 124 5524ft 114kts
21-Nov-20 15:05 34.175218 -118.176648 111 5516ft 113kts
21-Nov-20 15:06 34.164566 -118.140696 106 5492ft 113kts
21-Nov-20 15:07 34.155850 -118.104024 101 5474ft 113kts
21-Nov-20 15:08 34.150349 -118.066401 99 5462ft 113kts
21-Nov-20 15:09 34.144254 -118.029115 100 5465ft 113kts
21-Nov-20 15:10 34.138545 -117.991667 98 5548ft 113kts
21-Nov-20 15:11 34.132031 -117.954304 102 5562ft 113kts
21-Nov-20 15:12 34.126764 -117.916790 96 5497ft 113kts
21-Nov-20 15:13 34.124475 -117.878975 89 5448ft 112kts
21-Nov-20 15:14 34.124707 -117.841263 89 5327ft 113kts
21-Nov-20 15:15 34.123972 -117.804487 92 4803ft 112kts
21-Nov-20 15:16 34.120150 -117.768406 98 4256ft 112kts
21-Nov-20 15:17 34.114281 -117.734546 102 3767ft 111kts
21-Nov-20 15:18 34.105185 -117.699556 113 3258ft 111kts
21-Nov-20 15:19 34.085098 -117.672822 137 2558ft 106kts
21-Nov-20 15:20 34.069844 -117.644822 92 1963ft 96kts
21-Nov-20 15:21 34.069314 -117.612984 89 1929ft 99kts
21-Nov-20 15:22 34.068182 -117.579844 89 1969ft 95kts
21-Nov-20 15:23 34.067223 -117.549645 120 1621ft 94kts
21-Nov-20 15:24 34.056897 -117.566077 272 1174ft 87kts
21-Nov-20 15:25 34.056925 -117.589939 270 940ft 38kts
21-Nov-20 15:26 34.057799 -117.595974 6 935ft 0kts
21-Nov-20 15:27 34.058005 -117.595831 26 935ft 10kts
21-Nov-20 15:28 0.000408 0.013975 359 3ft 0kts

Navigation Log

Ident Type
Flight plan parsing failed, navigation log unavailable